Time;durP1;ratioP1;P1;durP2;ratioP2;P2;SDS_P1;SDS_P2;PMS_P1;PMS_P2;Temp;Humidity;BMP_temperature;BMP_pressure;BME280_temperature;BME280_humidity;BME280_pressure;Samples;Min_cycle;Max_cycle;Signal;HPM_P1;HPM_P2
2021/05/14 00:01:25;;;;;;;5.32;0.80;;;;;;;;;;4908921;29;20043;-56
2021/05/14 00:03:52;;;;;;;5.78;0.82;;;;;;;;;;4918785;29;20040;-55
2021/05/14 00:06:18;;;;;;;5.20;1.05;;;;;;;;;;4919368;29;20053;-54
2021/05/14 00:08:43;;;;;;;8.15;1.25;;;;;;;;;;4921362;29;20140;-55
2021/05/14 00:11:09;;;;;;;6.80;0.82;;;;;;;;;;4920495;29;20135;-57
2021/05/14 00:13:35;;;;;;;3.40;0.70;;;;;;;;;;4920881;29;20063;-57
2021/05/14 00:16:01;;;;;;;6.40;1.10;;;;;;;;;;4920517;29;20458;-55
2021/05/14 00:18:27;;;;;;;6.57;1.10;;;;;;;;;;4920234;29;20044;-55
2021/05/14 00:20:52;;;;;;;6.40;1.20;;;;;;;;;;4922353;29;20036;-55
2021/05/14 00:23:18;;;;;;;5.30;0.93;;;;;;;;;;4920173;29;20066;-56
2021/05/14 00:25:44;;;;;;;4.78;0.90;;;;;;;;;;4924411;29;20131;-55
2021/05/14 00:28:10;;;;;;;6.82;1.00;;;;;;;;;;4925220;29;20031;-56
2021/05/14 00:30:38;;;;;;;4.70;1.00;;;;;;;;;;4922500;29;20047;-54
2021/05/14 00:33:04;;;;;;;2.95;0.90;;;;;;;;;;4919365;29;20074;-53
2021/05/14 00:35:29;;;;;;;6.20;1.02;;;;;;;;;;4921492;29;20135;-54
2021/05/14 00:37:55;;;;;;;4.63;1.10;;;;;;;;;;4921084;29;20058;-56
2021/05/14 00:40:21;;;;;;;7.47;1.10;;;;;;;;;;4920506;29;20096;-53
2021/05/14 00:42:47;;;;;;;3.05;0.77;;;;;;;;;;4921660;29;20063;-54
2021/05/14 00:45:13;;;;;;;5.28;1.35;;;;;;;;;;4919310;29;20490;-55
2021/05/14 00:47:39;;;;;;;3.78;0.70;;;;;;;;;;4919258;29;20046;-55
2021/05/14 00:50:05;;;;;;;4.47;0.70;;;;;;;;;;4917766;29;20044;-57
2021/05/14 00:52:31;;;;;;;8.68;1.30;;;;;;;;;;4915639;29;20117;-55
2021/05/14 00:54:57;;;;;;;6.63;1.00;;;;;;;;;;4917919;29;20032;-56
2021/05/14 00:57:23;;;;;;;2.85;0.82;;;;;;;;;;4916498;29;20058;-57
2021/05/14 00:59:49;;;;;;;4.85;0.90;;;;;;;;;;4918242;29;20044;-57
2021/05/14 01:02:16;;;;;;;6.30;1.00;;;;;;;;;;4916772;29;20028;-55
2021/05/14 01:04:43;;;;;;;2.55;0.70;;;;;;;;;;4916389;29;20052;-55
2021/05/14 01:07:09;;;;;;;4.05;0.88;;;;;;;;;;4915077;29;20163;-54
2021/05/14 01:09:35;;;;;;;3.42;0.90;;;;;;;;;;4915740;29;20110;-56
2021/05/14 01:12:01;;;;;;;3.63;0.95;;;;;;;;;;4918733;29;20094;-56
2021/05/14 01:14:27;;;;;;;3.15;0.90;;;;;;;;;;4918911;29;20035;-55
2021/05/14 01:16:53;;;;;;;6.72;1.02;;;;;;;;;;4921736;29;20040;-55
2021/05/14 01:19:19;;;;;;;5.00;1.17;;;;;;;;;;4919152;29;20039;-55
2021/05/14 01:21:45;;;;;;;3.33;0.80;;;;;;;;;;4920077;29;20154;-55
2021/05/14 01:24:11;;;;;;;2.75;0.80;;;;;;;;;;4918972;29;20376;-56
2021/05/14 01:26:37;;;;;;;7.38;0.90;;;;;;;;;;4898171;29;20048;-55
2021/05/14 01:29:06;;;;;;;4.70;0.95;;;;;;;;;;4918681;29;20062;-55
2021/05/14 01:31:32;;;;;;;4.80;0.90;;;;;;;;;;4916136;29;20048;-55
2021/05/14 01:33:58;;;;;;;5.85;0.80;;;;;;;;;;4917040;29;20119;-56
2021/05/14 01:36:24;;;;;;;3.38;0.90;;;;;;;;;;4917394;29;20352;-58
2021/05/14 01:38:50;;;;;;;7.60;1.00;;;;;;;;;;4918286;29;20907;-57
2021/05/14 01:41:16;;;;;;;7.55;1.55;;;;;;;;;;4920391;29;20035;-54
2021/05/14 01:43:42;;;;;;;3.25;0.80;;;;;;;;;;4921641;29;20063;-55
2021/05/14 01:46:08;;;;;;;3.50;0.85;;;;;;;;;;4918834;29;20581;-56
2021/05/14 01:48:33;;;;;;;4.72;0.90;;;;;;;;;;4918504;29;20131;-57
2021/05/14 01:51:07;;;;;;;6.05;0.80;;;;;;;;;;4922081;29;20047;-55
2021/05/14 01:53:33;;;;;;;3.75;0.70;;;;;;;;;;4900718;29;20051;-54
2021/05/14 01:55:59;;;;;;;7.13;1.30;;;;;;;;;;4918223;29;20040;-54
2021/05/14 01:58:24;;;;;;;4.93;0.90;;;;;;;;;;4917687;29;20130;-54
2021/05/14 02:00:50;;;;;;;3.88;1.00;;;;;;;;;;4920088;29;20126;-55
2021/05/14 02:03:16;;;;;;;6.10;0.95;;;;;;;;;;4923106;29;20079;-56
2021/05/14 02:05:42;;;;;;;4.82;1.00;;;;;;;;;;4919213;29;20051;-53
2021/05/14 02:08:08;;;;;;;6.75;0.95;;;;;;;;;;4918291;29;20815;-57
2021/05/14 02:10:34;;;;;;;3.00;0.70;;;;;;;;;;4921606;29;20407;-56
2021/05/14 02:12:59;;;;;;;5.47;0.90;;;;;;;;;;4923006;29;20056;-56
2021/05/14 02:15:25;;;;;;;4.15;1.10;;;;;;;;;;4921261;29;20069;-57
2021/05/14 02:17:51;;;;;;;6.63;0.85;;;;;;;;;;4920597;29;20106;-55
2021/05/14 02:20:17;;;;;;;8.57;1.10;;;;;;;;;;4922079;29;20035;-55
2021/05/14 02:22:43;;;;;;;2.97;0.90;;;;;;;;;;4921775;29;20043;-55
2021/05/14 02:25:09;;;;;;;8.25;0.90;;;;;;;;;;4919174;29;20040;-57
2021/05/14 02:27:35;;;;;;;4.90;0.90;;;;;;;;;;4919454;29;20059;-56
2021/05/14 02:30:02;;;;;;;7.28;1.10;;;;;;;;;;4921329;29;20036;-55
2021/05/14 02:32:28;;;;;;;4.35;0.85;;;;;;;;;;4918197;29;20074;-54
2021/05/14 02:34:54;;;;;;;5.20;2.45;;;;;;;;;;4918059;29;20040;-57
2021/05/14 02:37:20;;;;;;;3.80;0.73;;;;;;;;;;4919745;29;20407;-56
2021/05/14 02:39:46;;;;;;;6.75;1.10;;;;;;;;;;4918049;29;20043;-56
2021/05/14 02:42:12;;;;;;;5.20;0.90;;;;;;;;;;4920115;29;20558;-57
2021/05/14 02:44:37;;;;;;;6.47;0.80;;;;;;;;;;4920015;29;20127;-57
2021/05/14 02:47:03;;;;;;;3.35;0.80;;;;;;;;;;4917465;29;20047;-56
2021/05/14 02:49:29;;;;;;;4.85;1.02;;;;;;;;;;4917116;29;20102;-55
2021/05/14 02:51:55;;;;;;;5.05;0.80;;;;;;;;;;4919982;29;20091;-56
2021/05/14 02:54:21;;;;;;;3.53;0.75;;;;;;;;;;4921407;29;20454;-57
2021/05/14 02:56:47;;;;;;;8.80;1.20;;;;;;;;;;4920734;29;20165;-56
2021/05/14 02:59:12;;;;;;;4.82;1.33;;;;;;;;;;4921898;29;20099;-57
2021/05/14 03:01:38;;;;;;;7.03;1.13;;;;;;;;;;4919820;29;20039;-57
2021/05/14 03:04:05;;;;;;;8.90;1.10;;;;;;;;;;4919278;29;20048;-57
2021/05/14 03:06:31;;;;;;;4.72;1.05;;;;;;;;;;4919800;29;20032;-57
2021/05/14 03:08:57;;;;;;;7.07;0.90;;;;;;;;;;4921011;29;20430;-58
2021/05/14 03:11:23;;;;;;;7.32;1.17;;;;;;;;;;4921252;29;20039;-57
2021/05/14 03:13:49;;;;;;;4.93;1.23;;;;;;;;;;4918809;29;20067;-57
2021/05/14 03:16:14;;;;;;;9.18;1.30;;;;;;;;;;4920573;29;20046;-57
2021/05/14 03:18:40;;;;;;;9.32;1.10;;;;;;;;;;4918802;29;20479;-57
2021/05/14 03:21:06;;;;;;;10.25;1.15;;;;;;;;;;4922145;29;20047;-57
2021/05/14 03:23:32;;;;;;;4.95;1.08;;;;;;;;;;4923939;29;20046;-56
2021/05/14 03:26:00;;;;;;;4.88;1.25;;;;;;;;;;4921570;29;20458;-57
2021/05/14 03:28:26;;;;;;;4.80;1.00;;;;;;;;;;4919801;28;20119;-57
2021/05/14 03:30:52;;;;;;;3.80;1.20;;;;;;;;;;4921304;29;20520;-56
2021/05/14 03:33:21;;;;;;;4.38;1.20;;;;;;;;;;4920785;29;20062;-56
2021/05/14 03:35:48;;;;;;;4.28;1.33;;;;;;;;;;4919692;29;20046;-56
2021/05/14 03:38:14;;;;;;;15.27;1.90;;;;;;;;;;4920380;29;20609;-56
2021/05/14 03:40:41;;;;;;;9.82;1.88;;;;;;;;;;4918967;29;20078;-55
2021/05/14 03:43:07;;;;;;;10.73;2.05;;;;;;;;;;4920312;29;20530;-57
2021/05/14 03:45:33;;;;;;;6.50;1.92;;;;;;;;;;4919106;29;20094;-55
2021/05/14 03:47:59;;;;;;;7.07;2.60;;;;;;;;;;4917555;29;20563;-56
2021/05/14 03:50:35;;;;;;;5.93;1.88;;;;;;;;;;4917108;29;20044;-56
2021/05/14 03:53:03;;;;;;;11.40;2.20;;;;;;;;;;4917021;29;20130;-56
2021/05/14 03:55:28;;;;;;;8.50;2.35;;;;;;;;;;4906529;29;20052;-57
2021/05/14 03:57:54;;;;;;;13.13;4.97;;;;;;;;;;4919484;29;20054;-55
2021/05/14 04:00:21;;;;;;;8.85;3.92;;;;;;;;;;4917084;29;20102;-55
2021/05/14 04:02:47;;;;;;;9.38;2.40;;;;;;;;;;4918402;29;20048;-57
2021/05/14 04:05:13;;;;;;;10.40;2.60;;;;;;;;;;4919590;29;20040;-56
2021/05/14 04:07:38;;;;;;;8.52;2.75;;;;;;;;;;4918518;29;20040;-56
2021/05/14 04:10:12;;;;;;;11.30;3.05;;;;;;;;;;4918904;29;20570;-55
2021/05/14 04:15:08;;;;;;;10.95;4.50;;;;;;;;;;4918389;29;20044;-55
2021/05/14 04:17:34;;;;;;;18.20;4.53;;;;;;;;;;4917137;29;20051;-55
2021/05/14 04:20:00;;;;;;;10.60;4.60;;;;;;;;;;4918738;29;20040;-55
2021/05/14 04:22:27;;;;;;;12.10;3.20;;;;;;;;;;4916944;29;20302;-57
2021/05/14 04:24:52;;;;;;;15.70;2.50;;;;;;;;;;4919382;29;20106;-55
2021/05/14 04:27:18;;;;;;;4.78;1.70;;;;;;;;;;4918082;29;20047;-56
2021/05/14 04:29:44;;;;;;;7.20;1.83;;;;;;;;;;4919255;29;20120;-54
2021/05/14 04:32:10;;;;;;;5.88;1.40;;;;;;;;;;4917917;29;20059;-56
2021/05/14 04:34:36;;;;;;;4.93;1.30;;;;;;;;;;4919821;29;20051;-56
2021/05/14 04:37:02;;;;;;;5.38;1.38;;;;;;;;;;4919876;29;20071;-53
2021/05/14 04:39:28;;;;;;;5.38;1.20;;;;;;;;;;4921901;29;20039;-57
2021/05/14 04:41:54;;;;;;;4.85;1.23;;;;;;;;;;4921908;29;21822;-55
2021/05/14 04:44:20;;;;;;;5.60;1.40;;;;;;;;;;4921374;29;20051;-54
2021/05/14 04:46:46;;;;;;;3.90;1.50;;;;;;;;;;4920402;29;20032;-57
2021/05/14 04:49:12;;;;;;;4.47;1.20;;;;;;;;;;4919766;29;20035;-55
2021/05/14 04:51:38;;;;;;;2.85;1.00;;;;;;;;;;4918060;29;20795;-55
2021/05/14 04:54:04;;;;;;;5.88;1.30;;;;;;;;;;4917795;29;20150;-57
2021/05/14 04:56:30;;;;;;;8.80;1.40;;;;;;;;;;4919314;29;20043;-55
2021/05/14 04:58:56;;;;;;;5.97;1.30;;;;;;;;;;4916818;29;20039;-56
2021/05/14 05:01:22;;;;;;;8.35;1.48;;;;;;;;;;4917413;29;20044;-55
2021/05/14 05:03:52;;;;;;;5.90;1.20;;;;;;;;;;4918110;29;20123;-55
2021/05/14 05:06:18;;;;;;;5.90;1.40;;;;;;;;;;4918338;29;20126;-56
2021/05/14 05:08:44;;;;;;;4.80;1.45;;;;;;;;;;4915938;29;20097;-55
2021/05/14 05:11:10;;;;;;;5.20;1.33;;;;;;;;;;4917972;29;20058;-54
2021/05/14 05:13:36;;;;;;;4.72;1.40;;;;;;;;;;4916373;29;20059;-54
2021/05/14 05:16:02;;;;;;;5.18;1.33;;;;;;;;;;4922870;29;20089;-55
2021/05/14 05:18:28;;;;;;;5.32;1.20;;;;;;;;;;4921406;29;20190;-54
2021/05/14 05:20:54;;;;;;;5.75;1.15;;;;;;;;;;4922369;29;20039;-55
2021/05/14 05:23:20;;;;;;;4.25;1.52;;;;;;;;;;4920859;29;20040;-55
2021/05/14 05:25:46;;;;;;;3.75;1.10;;;;;;;;;;4922418;29;20044;-54
2021/05/14 05:28:11;;;;;;;4.70;1.02;;;;;;;;;;4924314;29;21978;-56
2021/05/14 05:30:37;;;;;;;3.13;1.20;;;;;;;;;;4922251;29;20514;-54
2021/05/14 05:33:03;;;;;;;3.75;1.30;;;;;;;;;;4922699;29;20047;-55
2021/05/14 05:35:29;;;;;;;5.38;1.50;;;;;;;;;;4921139;29;20040;-55
2021/05/14 05:37:55;;;;;;;3.95;1.40;;;;;;;;;;4921322;29;20182;-54
2021/05/14 05:40:21;;;;;;;3.63;1.20;;;;;;;;;;4923325;29;20047;-56
2021/05/14 05:42:47;;;;;;;3.03;1.20;;;;;;;;;;4921420;29;20044;-55
2021/05/14 05:45:13;;;;;;;4.28;1.40;;;;;;;;;;4922213;29;20075;-55
2021/05/14 05:47:39;;;;;;;4.82;1.27;;;;;;;;;;4920194;29;20454;-55
2021/05/14 05:50:05;;;;;;;5.03;1.10;;;;;;;;;;4920992;29;20040;-57
2021/05/14 05:52:31;;;;;;;5.05;1.30;;;;;;;;;;4920030;29;20043;-55
2021/05/14 05:54:57;;;;;;;4.85;1.13;;;;;;;;;;4920688;29;20042;-53
2021/05/14 05:57:23;;;;;;;7.45;1.20;;;;;;;;;;4921104;29;20047;-56
2021/05/14 05:59:49;;;;;;;4.05;1.10;;;;;;;;;;4919850;29;20040;-53
2021/05/14 06:02:14;;;;;;;3.60;1.10;;;;;;;;;;4921756;29;20518;-56
2021/05/14 06:04:40;;;;;;;4.20;0.95;;;;;;;;;;4920939;29;20040;-56
2021/05/14 06:07:06;;;;;;;2.55;0.90;;;;;;;;;;4922463;29;20043;-56
2021/05/14 06:09:32;;;;;;;3.50;0.93;;;;;;;;;;4920930;29;20055;-55
2021/05/14 06:11:58;;;;;;;3.53;0.88;;;;;;;;;;4922317;29;20040;-56
2021/05/14 06:14:23;;;;;;;5.25;0.93;;;;;;;;;;4920260;29;20064;-55
2021/05/14 06:16:49;;;;;;;2.70;1.10;;;;;;;;;;4917481;29;20047;-56
2021/05/14 06:19:24;;;;;;;2.95;0.90;;;;;;;;;;4920234;29;20052;-55
2021/05/14 06:21:50;;;;;;;2.70;0.80;;;;;;;;;;4920188;29;20177;-56
2021/05/14 06:24:16;;;;;;;2.63;0.70;;;;;;;;;;4920317;29;20443;-53
2021/05/14 06:26:43;;;;;;;3.67;0.73;;;;;;;;;;4919535;29;20819;-55
2021/05/14 06:29:09;;;;;;;3.85;1.08;;;;;;;;;;4920593;29;20047;-55
2021/05/14 06:31:35;;;;;;;2.90;0.80;;;;;;;;;;4919877;29;20043;-54
2021/05/14 06:34:01;;;;;;;2.53;0.80;;;;;;;;;;4921068;29;20043;-55
2021/05/14 06:36:27;;;;;;;3.50;0.70;;;;;;;;;;4921607;29;20131;-54
2021/05/14 06:38:53;;;;;;;3.25;1.02;;;;;;;;;;4919635;29;20330;-53
2021/05/14 06:41:19;;;;;;;3.05;0.73;;;;;;;;;;4919346;29;20077;-55
2021/05/14 06:43:44;;;;;;;4.10;0.75;;;;;;;;;;4920656;29;20541;-55
2021/05/14 06:46:10;;;;;;;2.78;0.95;;;;;;;;;;4919694;29;20446;-55
2021/05/14 06:48:36;;;;;;;2.78;0.93;;;;;;;;;;4921469;29;20051;-53
2021/05/14 06:51:03;;;;;;;2.90;0.80;;;;;;;;;;4921264;29;20047;-55
2021/05/14 06:53:28;;;;;;;3.30;1.00;;;;;;;;;;4922143;29;20058;-55
2021/05/14 06:55:55;;;;;;;4.70;0.98;;;;;;;;;;4922294;29;20052;-55
2021/05/14 06:58:21;;;;;;;3.22;0.90;;;;;;;;;;4922008;29;20036;-55
2021/05/14 07:00:46;;;;;;;3.65;1.15;;;;;;;;;;4922905;29;20700;-56
2021/05/14 07:03:13;;;;;;;3.17;0.77;;;;;;;;;;4922712;29;20036;-55
2021/05/14 07:05:38;;;;;;;4.80;0.98;;;;;;;;;;4918946;29;20051;-52
2021/05/14 07:08:04;;;;;;;5.53;1.00;;;;;;;;;;4920525;29;20055;-53
2021/05/14 07:10:31;;;;;;;3.20;1.05;;;;;;;;;;4922384;29;20058;-54
2021/05/14 07:12:57;;;;;;;3.03;0.90;;;;;;;;;;4924184;29;20086;-55
2021/05/14 07:15:22;;;;;;;2.53;0.88;;;;;;;;;;4920148;29;20458;-56
2021/05/14 07:17:48;;;;;;;3.65;0.93;;;;;;;;;;4919828;29;20066;-57
2021/05/14 07:20:14;;;;;;;4.57;1.48;;;;;;;;;;4921044;29;20032;-53
2021/05/14 07:22:41;;;;;;;3.83;1.00;;;;;;;;;;4919321;29;20052;-54
2021/05/14 07:25:07;;;;;;;4.70;1.02;;;;;;;;;;4920020;29;20051;-55
2021/05/14 07:27:33;;;;;;;2.70;0.80;;;;;;;;;;4917693;29;20051;-56
2021/05/14 07:29:59;;;;;;;2.47;0.80;;;;;;;;;;4919191;29;20032;-55
2021/05/14 07:32:25;;;;;;;2.65;0.90;;;;;;;;;;4917934;29;20078;-53
2021/05/14 07:34:55;;;;;;;3.50;0.90;;;;;;;;;;4920461;29;20257;-56
2021/05/14 07:37:21;;;;;;;3.28;0.90;;;;;;;;;;4917607;29;20036;-53
2021/05/14 07:39:47;;;;;;;2.47;0.85;;;;;;;;;;4919035;29;20459;-55
2021/05/14 07:42:13;;;;;;;5.75;1.17;;;;;;;;;;4918800;29;20044;-55
2021/05/14 07:44:38;;;;;;;3.30;1.20;;;;;;;;;;4917987;29;20040;-55
2021/05/14 07:47:05;;;;;;;3.35;0.90;;;;;;;;;;4921592;29;20810;-53
2021/05/14 07:49:31;;;;;;;2.80;0.98;;;;;;;;;;4920557;29;20154;-56
2021/05/14 07:51:57;;;;;;;3.88;0.90;;;;;;;;;;4920570;29;20526;-56
2021/05/14 07:54:23;;;;;;;3.53;1.00;;;;;;;;;;4919671;29;20048;-55
2021/05/14 07:56:48;;;;;;;2.75;0.90;;;;;;;;;;4920507;29;20502;-56
2021/05/14 07:59:15;;;;;;;4.15;0.90;;;;;;;;;;4920299;29;20079;-54
2021/05/14 08:01:40;;;;;;;2.80;0.98;;;;;;;;;;4920655;29;20126;-56
2021/05/14 08:04:06;;;;;;;2.97;1.10;;;;;;;;;;4922385;29;20043;-56
2021/05/14 08:06:32;;;;;;;4.55;1.63;;;;;;;;;;4920604;29;20054;-54
2021/05/14 08:09:00;;;;;;;4.43;1.25;;;;;;;;;;4920861;29;20048;-54
2021/05/14 08:11:26;;;;;;;2.92;1.20;;;;;;;;;;4920757;29;20046;-57
2021/05/14 08:13:52;;;;;;;4.78;1.10;;;;;;;;;;4919044;29;20402;-56
2021/05/14 08:16:17;;;;;;;3.55;1.20;;;;;;;;;;4918517;29;20075;-55
2021/05/14 08:18:43;;;;;;;4.13;1.15;;;;;;;;;;4918672;29;20098;-54
2021/05/14 08:21:09;;;;;;;5.53;1.65;;;;;;;;;;4918080;29;20158;-53
2021/05/14 08:23:35;;;;;;;3.83;1.10;;;;;;;;;;4918200;29;20088;-54
2021/05/14 08:26:01;;;;;;;3.45;1.20;;;;;;;;;;4919542;29;20051;-54
2021/05/14 08:28:26;;;;;;;5.38;1.40;;;;;;;;;;4920313;29;20235;-53
2021/05/14 08:30:52;;;;;;;7.00;1.42;;;;;;;;;;4919045;29;20566;-55
2021/05/14 08:33:18;;;;;;;6.13;1.20;;;;;;;;;;4916936;29;20585;-55
2021/05/14 08:35:44;;;;;;;5.13;1.42;;;;;;;;;;4918837;29;20039;-57
2021/05/14 08:38:10;;;;;;;5.32;1.23;;;;;;;;;;4920166;29;20436;-55
2021/05/14 08:40:38;;;;;;;3.60;1.20;;;;;;;;;;4919907;29;20050;-54
2021/05/14 08:43:04;;;;;;;4.78;1.38;;;;;;;;;;4919165;29;20032;-56
2021/05/14 08:45:30;;;;;;;4.25;1.50;;;;;;;;;;4920474;29;20103;-54
2021/05/14 08:47:57;;;;;;;4.63;1.50;;;;;;;;;;4919426;29;20151;-55
2021/05/14 08:50:23;;;;;;;5.60;1.52;;;;;;;;;;4919244;29;20047;-56
2021/05/14 08:52:48;;;;;;;3.92;1.58;;;;;;;;;;4918176;29;20063;-55
2021/05/14 08:55:15;;;;;;;5.88;1.70;;;;;;;;;;4918439;29;20525;-56
2021/05/14 08:57:41;;;;;;;4.25;1.40;;;;;;;;;;4916373;29;20044;-58
2021/05/14 09:00:08;;;;;;;4.05;1.73;;;;;;;;;;4918474;29;20044;-55
2021/05/14 09:02:34;;;;;;;5.50;1.70;;;;;;;;;;4917900;29;20051;-54
2021/05/14 09:05:18;;;;;;;3.90;1.65;;;;;;;;;;4918402;29;20044;-53
2021/05/14 09:07:44;;;;;;;4.25;1.80;;;;;;;;;;4919098;29;22018;-53
2021/05/14 09:10:11;;;;;;;5.07;1.60;;;;;;;;;;4918740;29;20052;-55
2021/05/14 09:12:40;;;;;;;4.72;1.60;;;;;;;;;;4917796;29;20700;-54
2021/05/14 09:15:22;;;;;;;5.50;1.60;;;;;;;;;;4919650;29;20045;-55
2021/05/14 09:18:07;;;;;;;6.10;2.30;;;;;;;;;;4918568;29;20182;-55
2021/05/14 09:20:36;;;;;;;5.82;2.00;;;;;;;;;;4917459;29;20036;-55
2021/05/14 09:23:22;;;;;;;6.55;1.88;;;;;;;;;;4917747;29;20047;-54
2021/05/14 09:25:55;;;;;;;5.15;2.10;;;;;;;;;;4900739;29;20031;-53
2021/05/14 09:28:25;;;;;;;5.25;2.33;;;;;;;;;;4916922;29;20044;-52
2021/05/14 09:31:00;;;;;;;7.80;2.58;;;;;;;;;;4918835;29;20051;-54
2021/05/14 09:33:28;;;;;;;6.90;2.10;;;;;;;;;;4916959;29;20051;-53
2021/05/14 09:35:58;;;;;;;5.90;2.20;;;;;;;;;;4917828;29;20039;-55
2021/05/14 09:38:24;;;;;;;6.03;2.30;;;;;;;;;;4915919;29;20060;-53
2021/05/14 09:40:49;;;;;;;5.32;1.90;;;;;;;;;;4917354;29;20535;-52
2021/05/14 09:43:15;;;;;;;8.20;2.13;;;;;;;;;;4916975;29;20071;-52
2021/05/14 09:45:41;;;;;;;6.88;2.17;;;;;;;;;;4916619;29;20044;-54
2021/05/14 09:48:26;;;;;;;8.07;2.17;;;;;;;;;;4917154;29;20050;-54
2021/05/14 09:50:53;;;;;;;5.80;2.35;;;;;;;;;;4916655;29;20046;-53
2021/05/14 09:53:19;;;;;;;5.90;2.60;;;;;;;;;;4915716;29;20047;-55
2021/05/14 09:55:51;;;;;;;4.75;2.20;;;;;;;;;;4919030;29;20036;-54
2021/05/14 09:58:24;;;;;;;6.53;2.20;;;;;;;;;;4916544;29;20058;-55
2021/05/14 10:00:49;;;;;;;6.60;2.15;;;;;;;;;;4918145;29;20566;-55
2021/05/14 10:03:16;;;;;;;8.50;2.78;;;;;;;;;;4922040;29;20051;-55
2021/05/14 10:05:44;;;;;;;5.40;2.80;;;;;;;;;;4917542;29;20051;-54
2021/05/14 10:08:11;;;;;;;4.82;2.25;;;;;;;;;;4918050;29;20043;-55
2021/05/14 10:10:38;;;;;;;5.30;2.47;;;;;;;;;;4917900;29;20031;-55
2021/05/14 10:13:03;;;;;;;6.13;2.17;;;;;;;;;;4910045;29;20059;-55
2021/05/14 10:15:31;;;;;;;4.57;2.20;;;;;;;;;;4918621;29;20407;-55
2021/05/14 10:17:58;;;;;;;8.75;2.17;;;;;;;;;;4919115;29;20814;-55
2021/05/14 10:20:27;;;;;;;6.53;2.03;;;;;;;;;;4918630;29;20091;-55
2021/05/14 10:22:54;;;;;;;5.40;2.20;;;;;;;;;;4919929;29;20040;-55
2021/05/14 10:25:35;;;;;;;6.10;2.30;;;;;;;;;;4918065;29;20054;-56
2021/05/14 10:28:08;;;;;;;5.43;2.05;;;;;;;;;;4919597;29;20557;-55
2021/05/14 10:30:34;;;;;;;8.27;2.45;;;;;;;;;;4918868;29;20087;-56
2021/05/14 10:33:00;;;;;;;6.05;2.30;;;;;;;;;;4919612;29;20055;-55
2021/05/14 10:35:30;;;;;;;4.70;2.33;;;;;;;;;;4918617;29;20321;-53
2021/05/14 10:38:06;;;;;;;6.65;2.20;;;;;;;;;;4917853;29;21028;-54
2021/05/14 10:40:33;;;;;;;4.80;2.83;;;;;;;;;;4918366;29;20048;-55
2021/05/14 10:42:58;;;;;;;5.22;2.80;;;;;;;;;;4919157;29;20044;-53
2021/05/14 10:45:34;;;;;;;6.85;2.42;;;;;;;;;;4917819;29;20466;-56
2021/05/14 10:48:01;;;;;;;4.30;2.10;;;;;;;;;;4920143;29;20055;-54
2021/05/14 10:50:49;;;;;;;7.85;2.58;;;;;;;;;;4917622;29;20123;-54
2021/05/14 10:53:18;;;;;;;8.57;2.30;;;;;;;;;;4918668;29;20055;-55
2021/05/14 10:55:44;;;;;;;6.13;2.50;;;;;;;;;;4919673;29;20043;-54
2021/05/14 10:58:30;;;;;;;4.85;2.10;;;;;;;;;;4921126;29;20454;-54
2021/05/14 11:00:56;;;;;;;4.65;2.17;;;;;;;;;;4907846;29;20055;-56
2021/05/14 11:03:22;;;;;;;7.75;2.50;;;;;;;;;;4920154;29;20040;-55
2021/05/14 11:05:49;;;;;;;9.27;2.50;;;;;;;;;;4921568;29;20052;-55
2021/05/14 11:08:33;;;;;;;5.35;2.25;;;;;;;;;;4919574;29;20150;-53
2021/05/14 11:11:00;;;;;;;5.15;2.50;;;;;;;;;;4918834;29;20044;-55
2021/05/14 11:13:36;;;;;;;6.88;2.28;;;;;;;;;;4918451;29;20047;-55
2021/05/14 11:16:20;;;;;;;10.23;2.60;;;;;;;;;;4918046;29;20855;-56
2021/05/14 11:18:50;;;;;;;4.85;2.33;;;;;;;;;;4921003;29;20052;-53
2021/05/14 11:21:17;;;;;;;9.00;2.97;;;;;;;;;;4922637;29;20043;-52
2021/05/14 11:23:43;;;;;;;8.18;2.92;;;;;;;;;;4919135;29;20044;-55
2021/05/14 11:26:16;;;;;;;10.38;3.03;;;;;;;;;;4918499;29;20067;-55
2021/05/14 11:28:44;;;;;;;7.22;2.25;;;;;;;;;;4919417;29;20043;-56
2021/05/14 11:31:16;;;;;;;6.72;2.63;;;;;;;;;;4920860;29;20036;-55
2021/05/14 11:33:43;;;;;;;9.38;3.30;;;;;;;;;;4918313;29;20135;-53
2021/05/14 11:36:09;;;;;;;10.27;3.22;;;;;;;;;;4919005;29;20127;-56
2021/05/14 11:38:35;;;;;;;13.30;2.90;;;;;;;;;;4915055;28;20410;-53
2021/05/14 11:41:01;;;;;;;7.60;2.70;;;;;;;;;;4919562;29;20511;-56
2021/05/14 11:43:29;;;;;;;10.85;2.85;;;;;;;;;;4918185;29;20820;-56
2021/05/14 11:45:57;;;;;;;7.80;2.85;;;;;;;;;;4916403;29;20058;-55
2021/05/14 11:48:27;;;;;;;6.65;2.88;;;;;;;;;;4918756;29;20044;-55
2021/05/14 11:50:55;;;;;;;7.07;2.58;;;;;;;;;;4917672;29;20499;-54
2021/05/14 11:53:22;;;;;;;8.70;3.13;;;;;;;;;;4916452;29;20552;-57
2021/05/14 11:55:48;;;;;;;11.77;4.03;;;;;;;;;;4919464;29;20074;-56
2021/05/14 11:58:14;;;;;;;9.30;3.30;;;;;;;;;;4918583;29;20099;-56
2021/05/14 12:00:46;;;;;;;9.77;3.10;;;;;;;;;;4916839;29;20282;-55
2021/05/14 12:03:13;;;;;;;6.40;3.15;;;;;;;;;;4896419;29;20505;-55
2021/05/14 12:05:40;;;;;;;4.97;2.15;;;;;;;;;;4917472;29;20050;-53
2021/05/14 12:08:12;;;;;;;6.90;2.70;;;;;;;;;;4919223;29;20047;-55
2021/05/14 12:10:48;;;;;;;14.70;3.23;;;;;;;;;;4918950;29;20114;-54
2021/05/14 12:13:15;;;;;;;9.00;2.65;;;;;;;;;;4919420;29;20048;-56
2021/05/14 12:15:41;;;;;;;9.18;2.83;;;;;;;;;;4914370;29;21015;-55
2021/05/14 12:18:09;;;;;;;8.95;3.08;;;;;;;;;;4917826;29;20118;-56
2021/05/14 12:20:39;;;;;;;11.25;2.55;;;;;;;;;;4916421;29;20051;-56
2021/05/14 12:23:06;;;;;;;9.07;2.38;;;;;;;;;;4919734;29;20052;-55
2021/05/14 12:25:43;;;;;;;7.05;2.13;;;;;;;;;;4918848;29;20047;-55
2021/05/14 12:28:28;;;;;;;8.60;2.40;;;;;;;;;;4920494;29;20459;-54
2021/05/14 12:30:54;;;;;;;8.25;2.75;;;;;;;;;;4919578;29;20036;-54
2021/05/14 12:33:20;;;;;;;6.38;2.20;;;;;;;;;;4920922;29;20066;-56
2021/05/14 12:35:57;;;;;;;6.00;2.50;;;;;;;;;;4922238;29;20051;-56
2021/05/14 12:38:40;;;;;;;9.15;2.83;;;;;;;;;;4919670;29;20043;-53
2021/05/14 12:41:19;;;;;;;10.52;2.80;;;;;;;;;;4921005;29;20039;-54
2021/05/14 12:43:45;;;;;;;5.80;2.28;;;;;;;;;;4914361;29;20048;-55
2021/05/14 12:46:11;;;;;;;12.35;2.70;;;;;;;;;;4919111;29;20063;-54
2021/05/14 12:48:36;;;;;;;7.95;2.90;;;;;;;;;;4919655;29;20044;-53
2021/05/14 12:51:02;;;;;;;6.43;3.67;;;;;;;;;;4918690;29;21066;-56
2021/05/14 12:53:28;;;;;;;8.00;3.25;;;;;;;;;;4916153;29;20051;-56
2021/05/14 12:55:54;;;;;;;5.18;2.92;;;;;;;;;;4921973;29;20412;-55
2021/05/14 12:58:19;;;;;;;13.43;3.33;;;;;;;;;;4919440;29;20052;-54
2021/05/14 13:00:46;;;;;;;7.95;2.88;;;;;;;;;;4922541;29;20066;-56
2021/05/14 13:03:11;;;;;;;7.00;3.08;;;;;;;;;;4919025;29;20044;-55
2021/05/14 13:05:41;;;;;;;11.07;3.55;;;;;;;;;;4918748;29;20043;-55
2021/05/14 13:08:08;;;;;;;10.15;2.80;;;;;;;;;;4919434;29;20395;-56
2021/05/14 13:10:35;;;;;;;9.13;3.38;;;;;;;;;;4918241;29;20043;-56
2021/05/14 13:13:01;;;;;;;9.88;2.83;;;;;;;;;;4918460;29;20069;-55
2021/05/14 13:15:27;;;;;;;10.90;2.60;;;;;;;;;;4917398;29;20031;-55
2021/05/14 13:17:53;;;;;;;6.65;2.38;;;;;;;;;;4917721;29;20398;-54
2021/05/14 13:20:19;;;;;;;10.85;2.38;;;;;;;;;;4915807;29;20036;-55
2021/05/14 13:22:45;;;;;;;12.20;2.42;;;;;;;;;;4907678;29;20047;-55
2021/05/14 13:25:11;;;;;;;7.22;2.38;;;;;;;;;;4917115;29;20458;-55
2021/05/14 13:27:38;;;;;;;9.55;2.45;;;;;;;;;;4916597;29;20046;-56
2021/05/14 13:30:04;;;;;;;5.30;2.00;;;;;;;;;;4917686;29;20047;-56
2021/05/14 13:32:30;;;;;;;8.45;2.03;;;;;;;;;;4913716;29;20372;-56
2021/05/14 13:34:56;;;;;;;5.05;1.88;;;;;;;;;;4917962;29;20048;-56
2021/05/14 13:37:22;;;;;;;6.75;2.28;;;;;;;;;;4919091;29;20398;-55
2021/05/14 13:39:48;;;;;;;9.13;2.33;;;;;;;;;;4921475;29;20043;-55
2021/05/14 13:42:14;;;;;;;11.30;2.40;;;;;;;;;;4921588;29;20063;-56
2021/05/14 13:44:39;;;;;;;9.57;2.25;;;;;;;;;;4920577;29;20497;-54
2021/05/14 13:47:05;;;;;;;5.00;1.75;;;;;;;;;;4920344;29;20036;-55
2021/05/14 13:49:31;;;;;;;5.30;2.00;;;;;;;;;;4921347;29;20035;-55
2021/05/14 13:51:57;;;;;;;6.50;1.92;;;;;;;;;;4920808;29;20139;-56
2021/05/14 13:54:23;;;;;;;11.30;2.33;;;;;;;;;;4920482;29;20154;-56
2021/05/14 13:56:49;;;;;;;7.75;1.85;;;;;;;;;;4922053;29;20626;-55
2021/05/14 13:59:14;;;;;;;5.75;2.10;;;;;;;;;;4922462;29;20083;-53
2021/05/14 14:01:40;;;;;;;4.30;1.73;;;;;;;;;;4921135;29;20561;-56
2021/05/14 14:04:06;;;;;;;4.32;1.80;;;;;;;;;;4921657;29;20058;-54
2021/05/14 14:06:32;;;;;;;9.45;1.55;;;;;;;;;;4921136;29;20043;-56
2021/05/14 14:08:58;;;;;;;8.20;1.60;;;;;;;;;;4922151;29;20132;-52
2021/05/14 14:11:24;;;;;;;6.55;1.88;;;;;;;;;;4921963;29;20139;-54
2021/05/14 14:13:50;;;;;;;5.97;2.00;;;;;;;;;;4923688;29;20121;-53
2021/05/14 14:16:15;;;;;;;9.50;2.13;;;;;;;;;;4922176;29;20043;-54
2021/05/14 14:18:41;;;;;;;6.15;2.22;;;;;;;;;;4920307;29;20039;-53
2021/05/14 14:21:07;;;;;;;4.40;1.80;;;;;;;;;;4914927;29;20082;-54
2021/05/14 14:23:33;;;;;;;9.82;2.10;;;;;;;;;;4920234;29;20419;-54
2021/05/14 14:25:59;;;;;;;9.55;1.80;;;;;;;;;;4920089;29;20502;-55
2021/05/14 14:28:24;;;;;;;7.43;2.00;;;;;;;;;;4919315;29;20122;-55
2021/05/14 14:30:50;;;;;;;14.20;2.13;;;;;;;;;;4902327;29;20098;-55
2021/05/14 14:33:16;;;;;;;9.85;1.80;;;;;;;;;;4919994;29;20089;-54
2021/05/14 14:35:42;;;;;;;6.00;1.52;;;;;;;;;;4920917;29;20681;-55
2021/05/14 14:38:14;;;;;;;6.53;1.55;;;;;;;;;;4921538;29;20048;-55
2021/05/14 14:40:45;;;;;;;6.85;1.50;;;;;;;;;;4920632;29;20039;-55
2021/05/14 14:43:12;;;;;;;7.15;1.65;;;;;;;;;;4921036;29;20055;-55